Yale, Nebraska
Current Conditions -  °F | °C
As of 3:53 AM on Sunday 26 Oct 2014 (Local Time) from KODX Reporting Station
Clear Clear  
Wind Chill: 47°   Ceiling: Unl
Heat Index: 47°   Visibility: 10mi
Dew Point: 40°   Wind: 0mph
Humidity: 77%   Direction: NA
Pressure: 29.83"   Gusts: NA
Location:  41.4381°N, 99.098°W
Report Text: KODX 260853Z AUTO 00000KT 10SM CLR 08/04 A2983 RMK AO2 SLP100 T00830044 58032
Loading
Personal Weather Stations






























Interactive Weather Map
Tropical Storm Tracking
New forecast layout! Learn more

10-Day Weather Forecast

Advertisements
Track Severe Weather on mobile